sensor_id;sensor_type;location;lat;lon;timestamp;P1;durP1;ratioP1;P2;durP2;ratioP2
21099;SDS011;10708;50.824;4.408;2022-07-06T00:00:51;5.10;;;2.22;;
21099;SDS011;10708;50.824;4.408;2022-07-06T00:05:55;6.05;;;2.22;;
21099;SDS011;10708;50.824;4.408;2022-07-06T00:10:58;4.53;;;2.03;;
21099;SDS011;10708;50.824;4.408;2022-07-06T00:16:00;3.88;;;2.00;;
21099;SDS011;10708;50.824;4.408;2022-07-06T00:21:04;6.18;;;2.17;;
21099;SDS011;10708;50.824;4.408;2022-07-06T00:26:07;4.13;;;2.60;;
21099;SDS011;10708;50.824;4.408;2022-07-06T00:31:10;6.35;;;2.53;;
21099;SDS011;10708;50.824;4.408;2022-07-06T00:36:13;4.80;;;2.00;;
21099;SDS011;10708;50.824;4.408;2022-07-06T00:41:16;4.15;;;2.10;;
21099;SDS011;10708;50.824;4.408;2022-07-06T00:46:18;5.83;;;2.13;;
21099;SDS011;10708;50.824;4.408;2022-07-06T01:02:08;4.38;;;2.05;;
21099;SDS011;10708;50.824;4.408;2022-07-06T01:07:10;3.78;;;2.33;;
21099;SDS011;10708;50.824;4.408;2022-07-06T01:12:12;5.13;;;2.03;;
21099;SDS011;10708;50.824;4.408;2022-07-06T01:17:16;3.97;;;2.27;;
21099;SDS011;10708;50.824;4.408;2022-07-06T01:22:20;5.93;;;2.30;;
21099;SDS011;10708;50.824;4.408;2022-07-06T01:27:25;3.67;;;1.70;;
21099;SDS011;10708;50.824;4.408;2022-07-06T01:32:28;4.07;;;2.03;;
21099;SDS011;10708;50.824;4.408;2022-07-06T01:37:31;3.70;;;2.30;;
21099;SDS011;10708;50.824;4.408;2022-07-06T01:42:33;5.60;;;2.53;;
21099;SDS011;10708;50.824;4.408;2022-07-06T01:47:36;2.90;;;1.77;;
21099;SDS011;10708;50.824;4.408;2022-07-06T01:52:40;4.67;;;2.23;;
21099;SDS011;10708;50.824;4.408;2022-07-06T01:57:42;5.53;;;2.07;;
21099;SDS011;10708;50.824;4.408;2022-07-06T02:02:44;3.40;;;2.10;;
21099;SDS011;10708;50.824;4.408;2022-07-06T02:07:47;5.83;;;2.20;;
21099;SDS011;10708;50.824;4.408;2022-07-06T02:12:50;5.83;;;2.10;;
21099;SDS011;10708;50.824;4.408;2022-07-06T02:17:52;5.57;;;2.10;;
21099;SDS011;10708;50.824;4.408;2022-07-06T02:22:55;5.00;;;2.03;;
21099;SDS011;10708;50.824;4.408;2022-07-06T02:27:57;7.03;;;2.83;;
21099;SDS011;10708;50.824;4.408;2022-07-06T02:33:00;6.87;;;2.63;;
21099;SDS011;10708;50.824;4.408;2022-07-06T02:38:03;3.57;;;2.03;;
21099;SDS011;10708;50.824;4.408;2022-07-06T02:43:05;3.60;;;1.97;;
21099;SDS011;10708;50.824;4.408;2022-07-06T02:48:08;3.30;;;2.13;;
21099;SDS011;10708;50.824;4.408;2022-07-06T02:53:11;2.87;;;1.87;;
21099;SDS011;10708;50.824;4.408;2022-07-06T02:58:13;5.70;;;2.17;;
21099;SDS011;10708;50.824;4.408;2022-07-06T03:03:15;6.07;;;2.60;;
21099;SDS011;10708;50.824;4.408;2022-07-06T03:08:19;3.47;;;2.20;;
21099;SDS011;10708;50.824;4.408;2022-07-06T03:13:21;4.57;;;2.20;;
21099;SDS011;10708;50.824;4.408;2022-07-06T03:18:23;3.80;;;2.43;;
21099;SDS011;10708;50.824;4.408;2022-07-06T03:23:27;5.07;;;2.53;;
21099;SDS011;10708;50.824;4.408;2022-07-06T03:28:29;5.10;;;2.50;;
21099;SDS011;10708;50.824;4.408;2022-07-06T03:33:31;6.97;;;2.30;;
21099;SDS011;10708;50.824;4.408;2022-07-06T03:38:35;3.70;;;2.37;;
21099;SDS011;10708;50.824;4.408;2022-07-06T03:43:38;3.60;;;2.33;;
21099;SDS011;10708;50.824;4.408;2022-07-06T03:48:40;4.83;;;2.30;;
21099;SDS011;10708;50.824;4.408;2022-07-06T03:53:43;8.30;;;2.57;;
21099;SDS011;10708;50.824;4.408;2022-07-06T03:58:45;4.83;;;2.60;;
21099;SDS011;10708;50.824;4.408;2022-07-06T04:03:47;5.50;;;2.43;;
21099;SDS011;10708;50.824;4.408;2022-07-06T04:08:51;8.90;;;2.90;;
21099;SDS011;10708;50.824;4.408;2022-07-06T04:13:53;4.43;;;2.30;;
21099;SDS011;10708;50.824;4.408;2022-07-06T04:18:55;3.73;;;2.57;;
21099;SDS011;10708;50.824;4.408;2022-07-06T04:23:59;3.40;;;2.50;;
21099;SDS011;10708;50.824;4.408;2022-07-06T04:29:01;5.80;;;2.65;;
21099;SDS011;10708;50.824;4.408;2022-07-06T04:34:04;6.47;;;2.50;;
21099;SDS011;10708;50.824;4.408;2022-07-06T04:39:07;6.63;;;2.60;;
21099;SDS011;10708;50.824;4.408;2022-07-06T04:44:09;6.37;;;2.53;;
21099;SDS011;10708;50.824;4.408;2022-07-06T04:49:12;6.60;;;3.07;;
21099;SDS011;10708;50.824;4.408;2022-07-06T04:54:16;6.00;;;3.10;;
21099;SDS011;10708;50.824;4.408;2022-07-06T04:59:18;8.23;;;3.97;;
21099;SDS011;10708;50.824;4.408;2022-07-06T05:04:20;5.63;;;3.40;;
21099;SDS011;10708;50.824;4.408;2022-07-06T05:09:24;6.33;;;3.40;;
21099;SDS011;10708;50.824;4.408;2022-07-06T05:14:26;9.33;;;3.50;;
21099;SDS011;10708;50.824;4.408;2022-07-06T05:19:28;8.63;;;3.60;;
21099;SDS011;10708;50.824;4.408;2022-07-06T05:24:32;7.87;;;3.57;;
21099;SDS011;10708;50.824;4.408;2022-07-06T05:29:34;8.63;;;3.90;;
21099;SDS011;10708;50.824;4.408;2022-07-06T05:34:36;4.63;;;3.75;;
21099;SDS011;10708;50.824;4.408;2022-07-06T05:39:40;8.75;;;3.38;;
21099;SDS011;10708;50.824;4.408;2022-07-06T05:44:45;9.85;;;4.32;;
21099;SDS011;10708;50.824;4.408;2022-07-06T05:49:47;11.77;;;4.22;;
21099;SDS011;10708;50.824;4.408;2022-07-06T05:55:09;10.52;;;4.65;;
21099;SDS011;10708;50.824;4.408;2022-07-06T06:00:12;9.27;;;5.10;;
21099;SDS011;10708;50.824;4.408;2022-07-06T06:05:15;15.35;;;5.28;;
21099;SDS011;10708;50.824;4.408;2022-07-06T06:10:19;16.38;;;7.53;;
21099;SDS011;10708;50.824;4.408;2022-07-06T06:15:23;15.85;;;5.80;;
21099;SDS011;10708;50.824;4.408;2022-07-06T06:20:26;9.88;;;5.65;;
21099;SDS011;10708;50.824;4.408;2022-07-06T06:25:30;14.52;;;5.40;;
21099;SDS011;10708;50.824;4.408;2022-07-06T06:30:33;9.27;;;5.10;;
21099;SDS011;10708;50.824;4.408;2022-07-06T06:35:37;14.10;;;5.00;;
21099;SDS011;10708;50.824;4.408;2022-07-06T06:40:41;11.43;;;4.80;;
21099;SDS011;10708;50.824;4.408;2022-07-06T06:45:43;6.10;;;3.42;;
21099;SDS011;10708;50.824;4.408;2022-07-06T06:50:47;8.93;;;4.10;;
21099;SDS011;10708;50.824;4.408;2022-07-06T06:55:50;8.27;;;3.30;;
21099;SDS011;10708;50.824;4.408;2022-07-06T07:00:52;9.52;;;3.10;;
21099;SDS011;10708;50.824;4.408;2022-07-06T07:05:55;6.38;;;2.80;;
21099;SDS011;10708;50.824;4.408;2022-07-06T07:10:59;5.43;;;3.10;;
21099;SDS011;10708;50.824;4.408;2022-07-06T07:16:01;8.00;;;2.25;;
21099;SDS011;10708;50.824;4.408;2022-07-06T07:21:03;10.25;;;2.75;;
21099;SDS011;10708;50.824;4.408;2022-07-06T07:26:07;4.70;;;2.58;;
21099;SDS011;10708;50.824;4.408;2022-07-06T07:31:10;8.95;;;2.90;;
21099;SDS011;10708;50.824;4.408;2022-07-06T07:36:12;9.15;;;2.55;;
21099;SDS011;10708;50.824;4.408;2022-07-06T07:41:16;8.30;;;3.03;;
21099;SDS011;10708;50.824;4.408;2022-07-06T07:46:18;7.15;;;2.28;;
21099;SDS011;10708;50.824;4.408;2022-07-06T07:51:20;8.73;;;2.60;;
21099;SDS011;10708;50.824;4.408;2022-07-06T07:56:23;6.65;;;3.20;;
21099;SDS011;10708;50.824;4.408;2022-07-06T08:01:26;6.22;;;2.40;;
21099;SDS011;10708;50.824;4.408;2022-07-06T08:06:28;8.50;;;2.47;;
21099;SDS011;10708;50.824;4.408;2022-07-06T08:11:32;5.38;;;2.15;;
21099;SDS011;10708;50.824;4.408;2022-07-06T08:16:34;7.95;;;2.90;;
21099;SDS011;10708;50.824;4.408;2022-07-06T08:21:37;9.25;;;2.60;;
21099;SDS011;10708;50.824;4.408;2022-07-06T08:26:40;5.57;;;3.05;;
21099;SDS011;10708;50.824;4.408;2022-07-06T08:31:43;6.85;;;2.40;;
21099;SDS011;10708;50.824;4.408;2022-07-06T08:36:45;5.88;;;3.10;;
21099;SDS011;10708;50.824;4.408;2022-07-06T08:41:48;5.30;;;3.17;;
21099;SDS011;10708;50.824;4.408;2022-07-06T08:46:52;20.90;;;11.55;;
21099;SDS011;10708;50.824;4.408;2022-07-06T08:51:58;6.88;;;3.50;;
21099;SDS011;10708;50.824;4.408;2022-07-06T08:57:03;6.50;;;2.92;;
21099;SDS011;10708;50.824;4.408;2022-07-06T09:02:06;6.47;;;3.30;;
21099;SDS011;10708;50.824;4.408;2022-07-06T09:07:08;7.63;;;3.42;;
21099;SDS011;10708;50.824;4.408;2022-07-06T09:12:12;6.60;;;3.13;;
21099;SDS011;10708;50.824;4.408;2022-07-06T09:17:14;8.85;;;3.28;;
21099;SDS011;10708;50.824;4.408;2022-07-06T09:22:26;7.00;;;2.80;;
21099;SDS011;10708;50.824;4.408;2022-07-06T09:27:31;5.55;;;3.17;;
21099;SDS011;10708;50.824;4.408;2022-07-06T09:32:37;5.85;;;2.83;;
21099;SDS011;10708;50.824;4.408;2022-07-06T09:37:41;7.65;;;2.85;;
21099;SDS011;10708;50.824;4.408;2022-07-06T09:42:45;6.68;;;3.30;;
21099;SDS011;10708;50.824;4.408;2022-07-06T09:47:47;9.48;;;2.78;;
21099;SDS011;10708;50.824;4.408;2022-07-06T09:52:53;7.18;;;2.70;;
21099;SDS011;10708;50.824;4.408;2022-07-06T09:57:58;5.15;;;2.70;;
21099;SDS011;10708;50.824;4.408;2022-07-06T10:03:00;4.85;;;2.50;;
21099;SDS011;10708;50.824;4.408;2022-07-06T10:08:03;7.57;;;2.83;;
21099;SDS011;10708;50.824;4.408;2022-07-06T10:13:08;8.38;;;3.05;;
21099;SDS011;10708;50.824;4.408;2022-07-06T10:18:11;8.10;;;2.85;;
21099;SDS011;10708;50.824;4.408;2022-07-06T10:23:14;5.63;;;2.60;;
21099;SDS011;10708;50.824;4.408;2022-07-06T10:28:18;5.60;;;2.55;;
21099;SDS011;10708;50.824;4.408;2022-07-06T10:33:21;5.53;;;2.35;;
21099;SDS011;10708;50.824;4.408;2022-07-06T10:38:30;8.02;;;2.90;;
21099;SDS011;10708;50.824;4.408;2022-07-06T10:43:35;8.40;;;2.70;;
21099;SDS011;10708;50.824;4.408;2022-07-06T10:48:40;5.88;;;2.90;;
21099;SDS011;10708;50.824;4.408;2022-07-06T10:53:43;6.32;;;2.50;;
21099;SDS011;10708;50.824;4.408;2022-07-06T10:58:50;4.70;;;2.33;;
21099;SDS011;10708;50.824;4.408;2022-07-06T11:04:04;5.13;;;2.78;;
21099;SDS011;10708;50.824;4.408;2022-07-06T11:09:08;4.82;;;2.80;;
21099;SDS011;10708;50.824;4.408;2022-07-06T11:14:13;4.82;;;2.15;;
21099;SDS011;10708;50.824;4.408;2022-07-06T11:19:17;6.13;;;2.65;;
21099;SDS011;10708;50.824;4.408;2022-07-06T11:24:21;4.15;;;2.50;;
21099;SDS011;10708;50.824;4.408;2022-07-06T11:29:26;5.07;;;2.42;;
21099;SDS011;10708;50.824;4.408;2022-07-06T11:34:30;5.18;;;2.40;;
21099;SDS011;10708;50.824;4.408;2022-07-06T11:39:35;3.83;;;2.25;;
21099;SDS011;10708;50.824;4.408;2022-07-06T11:44:41;4.93;;;1.95;;
21099;SDS011;10708;50.824;4.408;2022-07-06T11:49:44;5.70;;;2.55;;
21099;SDS011;10708;50.824;4.408;2022-07-06T11:54:57;6.35;;;2.25;;
21099;SDS011;10708;50.824;4.408;2022-07-06T12:00:01;8.70;;;4.10;;
21099;SDS011;10708;50.824;4.408;2022-07-06T12:05:03;4.28;;;2.20;;
21099;SDS011;10708;50.824;4.408;2022-07-06T12:10:06;6.97;;;2.45;;
21099;SDS011;10708;50.824;4.408;2022-07-06T12:15:11;7.28;;;2.30;;
21099;SDS011;10708;50.824;4.408;2022-07-06T12:20:13;4.00;;;1.85;;
21099;SDS011;10708;50.824;4.408;2022-07-06T12:25:28;3.17;;;1.92;;
21099;SDS011;10708;50.824;4.408;2022-07-06T12:30:32;5.28;;;2.08;;
21099;SDS011;10708;50.824;4.408;2022-07-06T12:35:35;4.13;;;2.38;;
21099;SDS011;10708;50.824;4.408;2022-07-06T12:40:37;5.05;;;2.00;;
21099;SDS011;10708;50.824;4.408;2022-07-06T12:45:41;6.28;;;2.38;;
21099;SDS011;10708;50.824;4.408;2022-07-06T12:50:46;7.65;;;2.80;;
21099;SDS011;10708;50.824;4.408;2022-07-06T12:55:48;4.45;;;2.20;;
21099;SDS011;10708;50.824;4.408;2022-07-06T13:00:52;4.55;;;2.08;;
21099;SDS011;10708;50.824;4.408;2022-07-06T13:05:57;7.18;;;2.63;;
21099;SDS011;10708;50.824;4.408;2022-07-06T13:10:59;7.03;;;2.58;;
21099;SDS011;10708;50.824;4.408;2022-07-06T13:16:02;3.15;;;2.20;;
21099;SDS011;10708;50.824;4.408;2022-07-06T13:21:05;4.40;;;2.20;;
21099;SDS011;10708;50.824;4.408;2022-07-06T13:26:07;5.03;;;2.50;;
21099;SDS011;10708;50.824;4.408;2022-07-06T13:31:11;8.30;;;2.53;;
21099;SDS011;10708;50.824;4.408;2022-07-06T13:36:13;4.38;;;2.60;;
21099;SDS011;10708;50.824;4.408;2022-07-06T13:41:16;4.75;;;2.50;;
21099;SDS011;10708;50.824;4.408;2022-07-06T13:46:20;4.68;;;2.20;;
21099;SDS011;10708;50.824;4.408;2022-07-06T13:51:22;4.45;;;2.40;;
21099;SDS011;10708;50.824;4.408;2022-07-06T13:56:25;5.55;;;2.70;;
21099;SDS011;10708;50.824;4.408;2022-07-06T14:01:29;3.92;;;2.40;;
21099;SDS011;10708;50.824;4.408;2022-07-06T14:06:32;3.33;;;2.10;;
21099;SDS011;10708;50.824;4.408;2022-07-06T14:11:34;5.85;;;2.50;;
21099;SDS011;10708;50.824;4.408;2022-07-06T14:16:38;4.18;;;2.45;;
21099;SDS011;10708;50.824;4.408;2022-07-06T14:21:41;2.55;;;2.10;;
21099;SDS011;10708;50.824;4.408;2022-07-06T14:26:43;5.32;;;1.90;;
21099;SDS011;10708;50.824;4.408;2022-07-06T14:31:46;3.50;;;2.05;;
21099;SDS011;10708;50.824;4.408;2022-07-06T14:36:49;6.78;;;2.30;;
21099;SDS011;10708;50.824;4.408;2022-07-06T14:41:51;6.80;;;2.05;;
21099;SDS011;10708;50.824;4.408;2022-07-06T14:46:55;5.90;;;2.30;;
21099;SDS011;10708;50.824;4.408;2022-07-06T14:51:57;6.07;;;2.08;;
21099;SDS011;10708;50.824;4.408;2022-07-06T14:56:59;6.70;;;1.92;;
21099;SDS011;10708;50.824;4.408;2022-07-06T15:02:04;5.18;;;1.95;;
21099;SDS011;10708;50.824;4.408;2022-07-06T15:07:06;3.15;;;2.38;;
21099;SDS011;10708;50.824;4.408;2022-07-06T15:12:09;7.45;;;2.13;;
21099;SDS011;10708;50.824;4.408;2022-07-06T15:17:13;3.78;;;1.95;;
21099;SDS011;10708;50.824;4.408;2022-07-06T15:22:17;5.60;;;2.03;;
21099;SDS011;10708;50.824;4.408;2022-07-06T15:27:20;6.03;;;1.90;;
21099;SDS011;10708;50.824;4.408;2022-07-06T15:32:24;4.45;;;2.25;;
21099;SDS011;10708;50.824;4.408;2022-07-06T15:37:26;5.65;;;2.40;;
21099;SDS011;10708;50.824;4.408;2022-07-06T15:42:28;3.33;;;2.00;;
21099;SDS011;10708;50.824;4.408;2022-07-06T15:47:32;5.40;;;2.20;;
21099;SDS011;10708;50.824;4.408;2022-07-06T15:52:34;5.13;;;2.03;;
21099;SDS011;10708;50.824;4.408;2022-07-06T15:57:37;3.50;;;1.92;;
21099;SDS011;10708;50.824;4.408;2022-07-06T16:02:40;4.45;;;1.98;;
21099;SDS011;10708;50.824;4.408;2022-07-06T16:07:43;5.10;;;1.90;;
21099;SDS011;10708;50.824;4.408;2022-07-06T16:12:46;4.13;;;2.33;;
21099;SDS011;10708;50.824;4.408;2022-07-06T16:17:50;5.38;;;3.00;;
21099;SDS011;10708;50.824;4.408;2022-07-06T16:22:53;8.57;;;2.78;;
21099;SDS011;10708;50.824;4.408;2022-07-06T16:27:55;4.45;;;3.17;;
21099;SDS011;10708;50.824;4.408;2022-07-06T16:32:59;5.18;;;3.10;;
21099;SDS011;10708;50.824;4.408;2022-07-06T16:38:02;6.03;;;3.60;;
21099;SDS011;10708;50.824;4.408;2022-07-06T16:43:04;5.07;;;3.78;;
21099;SDS011;10708;50.824;4.408;2022-07-06T16:48:08;7.32;;;3.63;;
21099;SDS011;10708;50.824;4.408;2022-07-06T16:53:11;6.13;;;3.55;;
21099;SDS011;10708;50.824;4.408;2022-07-06T16:58:13;6.45;;;4.10;;
21099;SDS011;10708;50.824;4.408;2022-07-06T17:03:17;10.95;;;4.40;;
21099;SDS011;10708;50.824;4.408;2022-07-06T17:08:20;7.68;;;4.45;;
21099;SDS011;10708;50.824;4.408;2022-07-06T17:13:22;7.25;;;4.50;;
21099;SDS011;10708;50.824;4.408;2022-07-06T17:18:26;11.38;;;4.47;;
21099;SDS011;10708;50.824;4.408;2022-07-06T17:23:28;8.73;;;5.30;;
21099;SDS011;10708;50.824;4.408;2022-07-06T17:28:31;6.43;;;5.05;;
21099;SDS011;10708;50.824;4.408;2022-07-06T17:33:35;12.35;;;5.82;;
21099;SDS011;10708;50.824;4.408;2022-07-06T17:38:37;8.60;;;4.97;;
21099;SDS011;10708;50.824;4.408;2022-07-06T17:43:39;10.98;;;5.80;;
21099;SDS011;10708;50.824;4.408;2022-07-06T17:48:43;9.77;;;5.70;;
21099;SDS011;10708;50.824;4.408;2022-07-06T17:53:45;8.85;;;6.15;;
21099;SDS011;10708;50.824;4.408;2022-07-06T17:58:47;9.55;;;4.97;;
21099;SDS011;10708;50.824;4.408;2022-07-06T18:03:51;6.20;;;4.47;;
21099;SDS011;10708;50.824;4.408;2022-07-06T18:08:54;10.45;;;4.93;;
21099;SDS011;10708;50.824;4.408;2022-07-06T18:13:56;8.18;;;4.72;;
21099;SDS011;10708;50.824;4.408;2022-07-06T18:19:03;8.95;;;4.30;;
21099;SDS011;10708;50.824;4.408;2022-07-06T18:24:05;6.43;;;3.88;;
21099;SDS011;10708;50.824;4.408;2022-07-06T18:29:07;5.57;;;2.60;;
21099;SDS011;10708;50.824;4.408;2022-07-06T18:34:11;6.10;;;2.40;;
21099;SDS011;10708;50.824;4.408;2022-07-06T18:39:14;5.70;;;2.92;;
21099;SDS011;10708;50.824;4.408;2022-07-06T18:44:16;6.95;;;2.03;;
21099;SDS011;10708;50.824;4.408;2022-07-06T18:49:20;2.78;;;1.80;;
21099;SDS011;10708;50.824;4.408;2022-07-06T18:54:22;4.32;;;1.48;;
21099;SDS011;10708;50.824;4.408;2022-07-06T18:59:25;3.13;;;1.33;;
21099;SDS011;10708;50.824;4.408;2022-07-06T19:04:29;2.10;;;0.95;;
21099;SDS011;10708;50.824;4.408;2022-07-06T19:09:31;2.40;;;1.20;;
21099;SDS011;10708;50.824;4.408;2022-07-06T19:14:33;3.47;;;0.98;;
21099;SDS011;10708;50.824;4.408;2022-07-06T19:19:37;2.65;;;0.90;;
21099;SDS011;10708;50.824;4.408;2022-07-06T19:24:39;2.47;;;1.00;;
21099;SDS011;10708;50.824;4.408;2022-07-06T19:29:41;2.20;;;1.10;;
21099;SDS011;10708;50.824;4.408;2022-07-06T19:34:46;2.47;;;1.23;;
21099;SDS011;10708;50.824;4.408;2022-07-06T19:39:49;1.88;;;0.80;;
21099;SDS011;10708;50.824;4.408;2022-07-06T19:44:52;2.10;;;0.90;;
21099;SDS011;10708;50.824;4.408;2022-07-06T19:49:55;1.65;;;1.00;;
21099;SDS011;10708;50.824;4.408;2022-07-06T19:54:58;1.77;;;0.90;;
21099;SDS011;10708;50.824;4.408;2022-07-06T20:00:00;5.80;;;0.90;;
21099;SDS011;10708;50.824;4.408;2022-07-06T20:05:04;2.67;;;1.27;;
21099;SDS011;10708;50.824;4.408;2022-07-06T20:10:08;2.03;;;1.00;;
21099;SDS011;10708;50.824;4.408;2022-07-06T20:15:10;3.88;;;0.85;;
21099;SDS011;10708;50.824;4.408;2022-07-06T20:20:14;2.10;;;0.88;;
21099;SDS011;10708;50.824;4.408;2022-07-06T20:25:16;2.17;;;1.00;;
21099;SDS011;10708;50.824;4.408;2022-07-06T20:30:19;2.35;;;1.05;;
21099;SDS011;10708;50.824;4.408;2022-07-06T20:35:23;1.55;;;1.00;;
21099;SDS011;10708;50.824;4.408;2022-07-06T20:40:26;0.88;;;0.70;;
21099;SDS011;10708;50.824;4.408;2022-07-06T20:45:29;2.05;;;1.30;;
21099;SDS011;10708;50.824;4.408;2022-07-06T20:50:33;1.40;;;0.98;;
21099;SDS011;10708;50.824;4.408;2022-07-06T20:55:35;2.03;;;1.20;;
21099;SDS011;10708;50.824;4.408;2022-07-06T21:00:37;1.23;;;0.95;;
21099;SDS011;10708;50.824;4.408;2022-07-06T21:05:41;1.85;;;1.15;;
21099;SDS011;10708;50.824;4.408;2022-07-06T21:10:44;1.30;;;1.00;;
21099;SDS011;10708;50.824;4.408;2022-07-06T21:15:46;2.63;;;1.10;;
21099;SDS011;10708;50.824;4.408;2022-07-06T21:20:49;1.58;;;1.15;;
21099;SDS011;10708;50.824;4.408;2022-07-06T21:25:52;3.42;;;2.10;;
21099;SDS011;10708;50.824;4.408;2022-07-06T21:30:54;2.85;;;1.27;;
21099;SDS011;10708;50.824;4.408;2022-07-06T21:35:57;2.67;;;1.65;;
21099;SDS011;10708;50.824;4.408;2022-07-06T21:41:00;3.65;;;1.50;;
21099;SDS011;10708;50.824;4.408;2022-07-06T21:46:02;2.03;;;1.45;;
21099;SDS011;10708;50.824;4.408;2022-07-06T21:51:06;2.83;;;1.65;;
21099;SDS011;10708;50.824;4.408;2022-07-06T21:56:09;5.80;;;1.60;;
21099;SDS011;10708;50.824;4.408;2022-07-06T22:01:11;2.78;;;1.73;;
21099;SDS011;10708;50.824;4.408;2022-07-06T22:06:16;2.67;;;2.00;;
21099;SDS011;10708;50.824;4.408;2022-07-06T22:11:18;4.15;;;2.10;;
21099;SDS011;10708;50.824;4.408;2022-07-06T22:16:20;3.80;;;2.30;;
21099;SDS011;10708;50.824;4.408;2022-07-06T22:21:26;4.95;;;2.08;;
21099;SDS011;10708;50.824;4.408;2022-07-06T22:26:28;3.60;;;1.80;;
21099;SDS011;10708;50.824;4.408;2022-07-06T22:31:31;2.00;;;1.80;;
21099;SDS011;10708;50.824;4.408;2022-07-06T22:36:35;3.00;;;1.70;;
21099;SDS011;10708;50.824;4.408;2022-07-06T22:41:37;3.85;;;1.85;;
21099;SDS011;10708;50.824;4.408;2022-07-06T22:46:40;3.97;;;2.42;;
21099;SDS011;10708;50.824;4.408;2022-07-06T22:51:43;3.42;;;2.25;;
21099;SDS011;10708;50.824;4.408;2022-07-06T22:56:46;4.57;;;2.10;;
21099;SDS011;10708;50.824;4.408;2022-07-06T23:01:48;3.90;;;2.15;;
21099;SDS011;10708;50.824;4.408;2022-07-06T23:06:52;5.60;;;2.92;;
21099;SDS011;10708;50.824;4.408;2022-07-06T23:11:54;4.93;;;2.13;;
21099;SDS011;10708;50.824;4.408;2022-07-06T23:17:00;2.88;;;2.30;;
21099;SDS011;10708;50.824;4.408;2022-07-06T23:22:04;2.97;;;2.30;;
21099;SDS011;10708;50.824;4.408;2022-07-06T23:27:07;3.58;;;2.38;;
21099;SDS011;10708;50.824;4.408;2022-07-06T23:32:09;4.18;;;2.60;;
21099;SDS011;10708;50.824;4.408;2022-07-06T23:37:13;5.75;;;2.85;;
21099;SDS011;10708;50.824;4.408;2022-07-06T23:42:15;2.80;;;2.35;;
21099;SDS011;10708;50.824;4.408;2022-07-06T23:47:18;3.70;;;2.47;;
21099;SDS011;10708;50.824;4.408;2022-07-06T23:52:22;4.05;;;2.75;;
21099;SDS011;10708;50.824;4.408;2022-07-06T23:57:26;3.55;;;2.58;;
